sensor_id;sensor_type;location;lat;lon;timestamp;P1;durP1;ratioP1;P2;durP2;ratioP2
53714;SDS011;39608;55.630;37.864;2023-02-28T00:03:33;3.40;;;2.65;;
53714;SDS011;39608;55.630;37.864;2023-02-28T00:08:35;5.00;;;3.20;;
53714;SDS011;39608;55.630;37.864;2023-02-28T00:13:38;6.32;;;3.67;;
53714;SDS011;39608;55.630;37.864;2023-02-28T00:18:43;5.63;;;3.72;;
53714;SDS011;39608;55.630;37.864;2023-02-28T00:23:45;8.23;;;3.47;;
53714;SDS011;39608;55.630;37.864;2023-02-28T00:28:48;6.53;;;3.42;;
53714;SDS011;39608;55.630;37.864;2023-02-28T00:33:51;7.05;;;4.13;;
53714;SDS011;39608;55.630;37.864;2023-02-28T00:38:53;4.22;;;2.75;;
53714;SDS011;39608;55.630;37.864;2023-02-28T00:43:55;5.05;;;3.00;;
53714;SDS011;39608;55.630;37.864;2023-02-28T00:48:59;6.88;;;3.45;;
53714;SDS011;39608;55.630;37.864;2023-02-28T00:54:00;6.78;;;3.22;;
53714;SDS011;39608;55.630;37.864;2023-02-28T00:59:02;5.28;;;3.08;;
53714;SDS011;39608;55.630;37.864;2023-02-28T01:04:06;5.28;;;3.13;;
53714;SDS011;39608;55.630;37.864;2023-02-28T01:09:08;5.95;;;3.10;;
53714;SDS011;39608;55.630;37.864;2023-02-28T01:14:11;4.85;;;2.75;;
53714;SDS011;39608;55.630;37.864;2023-02-28T01:19:15;4.35;;;2.60;;
53714;SDS011;39608;55.630;37.864;2023-02-28T01:24:17;5.53;;;2.97;;
53714;SDS011;39608;55.630;37.864;2023-02-28T01:29:20;2.88;;;2.42;;
53714;SDS011;39608;55.630;37.864;2023-02-28T01:34:23;3.72;;;2.67;;
53714;SDS011;39608;55.630;37.864;2023-02-28T01:39:25;4.50;;;3.00;;
53714;SDS011;39608;55.630;37.864;2023-02-28T01:50:02;4.00;;;2.50;;
53714;SDS011;39608;55.630;37.864;2023-02-28T01:55:07;4.85;;;2.88;;
53714;SDS011;39608;55.630;37.864;2023-02-28T02:00:13;5.03;;;2.95;;
53714;SDS011;39608;55.630;37.864;2023-02-28T02:05:19;4.85;;;2.78;;
53714;SDS011;39608;55.630;37.864;2023-02-28T02:10:24;4.38;;;2.78;;
53714;SDS011;39608;55.630;37.864;2023-02-28T02:15:31;6.47;;;2.35;;
53714;SDS011;39608;55.630;37.864;2023-02-28T02:26:11;2.97;;;2.03;;
53714;SDS011;39608;55.630;37.864;2023-02-28T02:37:00;3.85;;;2.47;;
53714;SDS011;39608;55.630;37.864;2023-02-28T02:42:13;4.65;;;2.38;;
53714;SDS011;39608;55.630;37.864;2023-02-28T02:47:19;4.30;;;2.85;;
53714;SDS011;39608;55.630;37.864;2023-02-28T02:52:29;5.43;;;2.33;;
53714;SDS011;39608;55.630;37.864;2023-02-28T02:57:37;5.88;;;2.67;;
53714;SDS011;39608;55.630;37.864;2023-02-28T03:02:46;3.40;;;2.42;;
53714;SDS011;39608;55.630;37.864;2023-02-28T03:07:51;4.63;;;2.38;;
53714;SDS011;39608;55.630;37.864;2023-02-28T03:12:55;3.22;;;2.45;;
53714;SDS011;39608;55.630;37.864;2023-02-28T03:18:08;4.35;;;2.33;;
53714;SDS011;39608;55.630;37.864;2023-02-28T03:23:19;4.45;;;2.35;;
53714;SDS011;39608;55.630;37.864;2023-02-28T03:28:28;5.13;;;2.90;;
53714;SDS011;39608;55.630;37.864;2023-02-28T03:33:38;1.88;;;1.73;;
53714;SDS011;39608;55.630;37.864;2023-02-28T03:38:46;1.27;;;0.75;;
53714;SDS011;39608;55.630;37.864;2023-02-28T03:43:53;3.40;;;2.15;;
53714;SDS011;39608;55.630;37.864;2023-02-28T03:49:00;2.10;;;1.52;;
53714;SDS011;39608;55.630;37.864;2023-02-28T03:54:08;3.88;;;2.15;;
53714;SDS011;39608;55.630;37.864;2023-02-28T03:59:14;5.75;;;1.50;;
53714;SDS011;39608;55.630;37.864;2023-02-28T04:04:21;4.03;;;2.33;;
53714;SDS011;39608;55.630;37.864;2023-02-28T04:09:25;3.10;;;1.88;;
53714;SDS011;39608;55.630;37.864;2023-02-28T04:14:27;3.95;;;2.03;;
53714;SDS011;39608;55.630;37.864;2023-02-28T04:19:29;5.50;;;2.58;;
53714;SDS011;39608;55.630;37.864;2023-02-28T04:24:33;2.38;;;1.98;;
53714;SDS011;39608;55.630;37.864;2023-02-28T04:29:34;2.92;;;1.85;;
53714;SDS011;39608;55.630;37.864;2023-02-28T04:34:36;2.40;;;1.85;;
53714;SDS011;39608;55.630;37.864;2023-02-28T04:39:40;2.45;;;1.90;;
53714;SDS011;39608;55.630;37.864;2023-02-28T04:44:43;3.42;;;2.17;;
53714;SDS011;39608;55.630;37.864;2023-02-28T04:49:45;3.00;;;1.70;;
53714;SDS011;39608;55.630;37.864;2023-02-28T04:54:48;2.63;;;1.83;;
53714;SDS011;39608;55.630;37.864;2023-02-28T04:59:50;1.83;;;1.45;;
53714;SDS011;39608;55.630;37.864;2023-02-28T05:04:52;3.53;;;2.20;;
53714;SDS011;39608;55.630;37.864;2023-02-28T05:09:56;1.67;;;1.58;;
53714;SDS011;39608;55.630;37.864;2023-02-28T05:14:58;4.18;;;1.98;;
53714;SDS011;39608;55.630;37.864;2023-02-28T05:20:01;1.90;;;1.30;;
53714;SDS011;39608;55.630;37.864;2023-02-28T05:25:08;2.80;;;1.70;;
53714;SDS011;39608;55.630;37.864;2023-02-28T05:30:13;3.80;;;1.83;;
53714;SDS011;39608;55.630;37.864;2023-02-28T05:35:16;2.72;;;1.55;;
53714;SDS011;39608;55.630;37.864;2023-02-28T05:40:19;1.88;;;1.42;;
53714;SDS011;39608;55.630;37.864;2023-02-28T05:45:21;2.75;;;1.67;;
53714;SDS011;39608;55.630;37.864;2023-02-28T05:50:23;4.45;;;2.15;;
53714;SDS011;39608;55.630;37.864;2023-02-28T05:55:27;2.13;;;1.77;;
53714;SDS011;39608;55.630;37.864;2023-02-28T06:00:29;2.50;;;1.83;;
53714;SDS011;39608;55.630;37.864;2023-02-28T06:05:31;4.13;;;2.17;;
53714;SDS011;39608;55.630;37.864;2023-02-28T06:10:34;4.07;;;2.20;;
53714;SDS011;39608;55.630;37.864;2023-02-28T06:15:36;5.95;;;1.52;;
53714;SDS011;39608;55.630;37.864;2023-02-28T06:20:38;3.90;;;2.25;;
53714;SDS011;39608;55.630;37.864;2023-02-28T06:25:44;3.55;;;2.03;;
53714;SDS011;39608;55.630;37.864;2023-02-28T06:30:46;3.17;;;2.42;;
53714;SDS011;39608;55.630;37.864;2023-02-28T06:35:49;3.92;;;2.38;;
53714;SDS011;39608;55.630;37.864;2023-02-28T06:40:56;4.45;;;1.80;;
53714;SDS011;39608;55.630;37.864;2023-02-28T06:45:59;3.20;;;1.90;;
53714;SDS011;39608;55.630;37.864;2023-02-28T06:51:03;3.55;;;2.55;;
53714;SDS011;39608;55.630;37.864;2023-02-28T06:56:08;4.38;;;2.50;;
53714;SDS011;39608;55.630;37.864;2023-02-28T07:01:13;2.88;;;2.30;;
53714;SDS011;39608;55.630;37.864;2023-02-28T07:06:15;3.05;;;2.03;;
53714;SDS011;39608;55.630;37.864;2023-02-28T07:11:19;2.70;;;2.25;;
53714;SDS011;39608;55.630;37.864;2023-02-28T07:16:23;4.05;;;2.30;;
53714;SDS011;39608;55.630;37.864;2023-02-28T07:21:26;3.85;;;2.08;;
53714;SDS011;39608;55.630;37.864;2023-02-28T07:26:29;2.88;;;1.80;;
53714;SDS011;39608;55.630;37.864;2023-02-28T07:31:34;4.80;;;2.60;;
53714;SDS011;39608;55.630;37.864;2023-02-28T07:36:36;2.08;;;1.85;;
53714;SDS011;39608;55.630;37.864;2023-02-28T07:41:39;4.00;;;1.73;;
53714;SDS011;39608;55.630;37.864;2023-02-28T07:46:43;3.92;;;2.17;;
53714;SDS011;39608;55.630;37.864;2023-02-28T07:51:45;1.38;;;1.23;;
53714;SDS011;39608;55.630;37.864;2023-02-28T07:56:49;2.47;;;1.83;;
53714;SDS011;39608;55.630;37.864;2023-02-28T08:01:51;2.90;;;2.20;;
53714;SDS011;39608;55.630;37.864;2023-02-28T08:06:53;3.50;;;1.65;;
53714;SDS011;39608;55.630;37.864;2023-02-28T08:11:58;4.85;;;2.10;;
53714;SDS011;39608;55.630;37.864;2023-02-28T08:17:01;2.22;;;2.00;;
53714;SDS011;39608;55.630;37.864;2023-02-28T08:22:03;5.03;;;2.65;;
53714;SDS011;39608;55.630;37.864;2023-02-28T08:27:06;3.92;;;2.47;;
53714;SDS011;39608;55.630;37.864;2023-02-28T08:32:10;3.55;;;2.45;;
53714;SDS011;39608;55.630;37.864;2023-02-28T08:37:12;3.85;;;2.58;;
53714;SDS011;39608;55.630;37.864;2023-02-28T08:42:15;6.03;;;2.40;;
53714;SDS011;39608;55.630;37.864;2023-02-28T08:47:17;4.47;;;2.33;;
53714;SDS011;39608;55.630;37.864;2023-02-28T08:52:20;3.47;;;2.50;;
53714;SDS011;39608;55.630;37.864;2023-02-28T08:57:23;3.28;;;2.40;;
53714;SDS011;39608;55.630;37.864;2023-02-28T09:02:26;3.10;;;2.55;;
53714;SDS011;39608;55.630;37.864;2023-02-28T09:07:28;7.57;;;2.55;;
53714;SDS011;39608;55.630;37.864;2023-02-28T09:12:33;3.33;;;2.30;;
53714;SDS011;39608;55.630;37.864;2023-02-28T09:17:36;3.15;;;2.63;;
53714;SDS011;39608;55.630;37.864;2023-02-28T09:22:38;6.65;;;2.53;;
53714;SDS011;39608;55.630;37.864;2023-02-28T09:27:41;3.90;;;2.20;;
53714;SDS011;39608;55.630;37.864;2023-02-28T09:32:43;4.30;;;2.25;;
53714;SDS011;39608;55.630;37.864;2023-02-28T09:37:53;3.05;;;2.17;;
53714;SDS011;39608;55.630;37.864;2023-02-28T09:42:57;7.65;;;2.90;;
53714;SDS011;39608;55.630;37.864;2023-02-28T09:48:02;3.33;;;2.22;;
53714;SDS011;39608;55.630;37.864;2023-02-28T09:53:13;3.73;;;2.50;;
53714;SDS011;39608;55.630;37.864;2023-02-28T09:58:26;4.05;;;2.45;;
53714;SDS011;39608;55.630;37.864;2023-02-28T10:03:34;3.92;;;2.20;;
53714;SDS011;39608;55.630;37.864;2023-02-28T10:08:40;4.43;;;2.45;;
53714;SDS011;39608;55.630;37.864;2023-02-28T10:13:54;3.80;;;2.30;;
53714;SDS011;39608;55.630;37.864;2023-02-28T10:19:02;4.50;;;2.92;;
53714;SDS011;39608;55.630;37.864;2023-02-28T10:24:12;4.15;;;2.50;;
53714;SDS011;39608;55.630;37.864;2023-02-28T10:29:22;5.30;;;2.20;;
53714;SDS011;39608;55.630;37.864;2023-02-28T10:34:24;3.97;;;2.83;;
53714;SDS011;39608;55.630;37.864;2023-02-28T10:39:40;2.90;;;2.30;;
53714;SDS011;39608;55.630;37.864;2023-02-28T10:44:44;4.53;;;2.40;;
53714;SDS011;39608;55.630;37.864;2023-02-28T10:49:47;2.83;;;2.33;;
53714;SDS011;39608;55.630;37.864;2023-02-28T10:54:51;4.05;;;2.83;;
53714;SDS011;39608;55.630;37.864;2023-02-28T11:00:23;4.82;;;2.60;;
53714;SDS011;39608;55.630;37.864;2023-02-28T11:05:27;4.93;;;2.75;;
53714;SDS011;39608;55.630;37.864;2023-02-28T11:10:31;6.68;;;2.33;;
53714;SDS011;39608;55.630;37.864;2023-02-28T11:15:37;4.75;;;2.53;;
53714;SDS011;39608;55.630;37.864;2023-02-28T11:20:39;3.42;;;1.70;;
53714;SDS011;39608;55.630;37.864;2023-02-28T11:25:45;4.43;;;2.72;;
53714;SDS011;39608;55.630;37.864;2023-02-28T11:30:59;3.92;;;2.40;;
53714;SDS011;39608;55.630;37.864;2023-02-28T11:36:07;4.68;;;2.53;;
53714;SDS011;39608;55.630;37.864;2023-02-28T11:41:18;5.95;;;3.13;;
53714;SDS011;39608;55.630;37.864;2023-02-28T11:46:33;6.05;;;2.70;;
53714;SDS011;39608;55.630;37.864;2023-02-28T11:51:45;2.83;;;2.42;;
53714;SDS011;39608;55.630;37.864;2023-02-28T11:56:57;4.20;;;2.80;;
53714;SDS011;39608;55.630;37.864;2023-02-28T12:02:13;3.63;;;2.75;;
53714;SDS011;39608;55.630;37.864;2023-02-28T12:07:25;6.03;;;2.83;;
53714;SDS011;39608;55.630;37.864;2023-02-28T12:12:38;4.60;;;2.65;;
53714;SDS011;39608;55.630;37.864;2023-02-28T12:17:58;5.38;;;2.70;;
53714;SDS011;39608;55.630;37.864;2023-02-28T12:23:19;3.53;;;2.47;;
53714;SDS011;39608;55.630;37.864;2023-02-28T12:28:37;5.20;;;2.42;;
53714;SDS011;39608;55.630;37.864;2023-02-28T12:33:45;4.15;;;2.72;;
53714;SDS011;39608;55.630;37.864;2023-02-28T12:38:53;6.25;;;2.95;;
53714;SDS011;39608;55.630;37.864;2023-02-28T12:44:00;2.67;;;2.28;;
53714;SDS011;39608;55.630;37.864;2023-02-28T12:49:08;3.77;;;2.50;;
53714;SDS011;39608;55.630;37.864;2023-02-28T12:54:15;9.50;;;2.60;;
53714;SDS011;39608;55.630;37.864;2023-02-28T12:59:27;4.85;;;2.70;;
53714;SDS011;39608;55.630;37.864;2023-02-28T13:10:04;5.05;;;3.10;;
53714;SDS011;39608;55.630;37.864;2023-02-28T13:15:08;3.90;;;2.78;;
53714;SDS011;39608;55.630;37.864;2023-02-28T13:20:24;2.65;;;2.20;;
53714;SDS011;39608;55.630;37.864;2023-02-28T13:31:04;3.40;;;2.25;;
53714;SDS011;39608;55.630;37.864;2023-02-28T13:36:09;2.72;;;2.00;;
53714;SDS011;39608;55.630;37.864;2023-02-28T13:57:50;2.90;;;2.28;;
53714;SDS011;39608;55.630;37.864;2023-02-28T14:03:06;3.67;;;1.95;;
53714;SDS011;39608;55.630;37.864;2023-02-28T14:08:18;3.03;;;2.28;;
53714;SDS011;39608;55.630;37.864;2023-02-28T14:13:40;3.20;;;2.40;;
53714;SDS011;39608;55.630;37.864;2023-02-28T14:18:48;2.95;;;2.15;;
53714;SDS011;39608;55.630;37.864;2023-02-28T14:29:26;3.15;;;2.30;;
53714;SDS011;39608;55.630;37.864;2023-02-28T14:34:38;4.97;;;2.78;;
53714;SDS011;39608;55.630;37.864;2023-02-28T14:39:46;2.95;;;2.38;;
53714;SDS011;39608;55.630;37.864;2023-02-28T14:44:53;5.25;;;2.70;;
53714;SDS011;39608;55.630;37.864;2023-02-28T14:49:56;2.90;;;2.58;;
53714;SDS011;39608;55.630;37.864;2023-02-28T14:55:01;5.93;;;2.92;;
53714;SDS011;39608;55.630;37.864;2023-02-28T15:00:12;3.83;;;2.38;;
53714;SDS011;39608;55.630;37.864;2023-02-28T15:05:21;3.78;;;2.10;;
53714;SDS011;39608;55.630;37.864;2023-02-28T15:10:27;2.88;;;2.10;;
53714;SDS011;39608;55.630;37.864;2023-02-28T15:15:34;3.08;;;2.30;;
53714;SDS011;39608;55.630;37.864;2023-02-28T15:20:42;4.65;;;2.15;;
53714;SDS011;39608;55.630;37.864;2023-02-28T15:25:48;5.78;;;2.33;;
53714;SDS011;39608;55.630;37.864;2023-02-28T15:30:54;3.60;;;2.03;;
53714;SDS011;39608;55.630;37.864;2023-02-28T15:36:11;3.22;;;2.15;;
53714;SDS011;39608;55.630;37.864;2023-02-28T15:41:25;3.88;;;2.60;;
53714;SDS011;39608;55.630;37.864;2023-02-28T15:46:28;2.25;;;1.95;;
53714;SDS011;39608;55.630;37.864;2023-02-28T15:51:31;2.58;;;1.75;;
53714;SDS011;39608;55.630;37.864;2023-02-28T15:56:38;3.38;;;2.30;;
53714;SDS011;39608;55.630;37.864;2023-02-28T16:01:44;3.13;;;2.13;;
53714;SDS011;39608;55.630;37.864;2023-02-28T16:06:53;2.25;;;2.05;;
53714;SDS011;39608;55.630;37.864;2023-02-28T16:12:04;3.72;;;2.30;;
53714;SDS011;39608;55.630;37.864;2023-02-28T16:17:19;3.15;;;2.75;;
53714;SDS011;39608;55.630;37.864;2023-02-28T16:22:23;2.72;;;2.20;;
53714;SDS011;39608;55.630;37.864;2023-02-28T16:27:30;2.97;;;2.00;;
53714;SDS011;39608;55.630;37.864;2023-02-28T16:32:34;3.05;;;2.05;;
53714;SDS011;39608;55.630;37.864;2023-02-28T16:37:37;2.15;;;1.88;;
53714;SDS011;39608;55.630;37.864;2023-02-28T16:42:40;3.83;;;2.15;;
53714;SDS011;39608;55.630;37.864;2023-02-28T16:47:42;2.88;;;2.15;;
53714;SDS011;39608;55.630;37.864;2023-02-28T16:52:45;2.53;;;1.80;;
53714;SDS011;39608;55.630;37.864;2023-02-28T16:57:49;3.47;;;2.05;;
53714;SDS011;39608;55.630;37.864;2023-02-28T17:02:53;3.60;;;2.47;;
53714;SDS011;39608;55.630;37.864;2023-02-28T17:07:55;4.93;;;1.95;;
53714;SDS011;39608;55.630;37.864;2023-02-28T17:12:59;3.30;;;1.85;;
53714;SDS011;39608;55.630;37.864;2023-02-28T17:18:01;4.07;;;2.20;;
53714;SDS011;39608;55.630;37.864;2023-02-28T17:23:03;3.00;;;1.98;;
53714;SDS011;39608;55.630;37.864;2023-02-28T17:28:08;1.80;;;1.52;;
53714;SDS011;39608;55.630;37.864;2023-02-28T17:33:10;3.10;;;1.95;;
53714;SDS011;39608;55.630;37.864;2023-02-28T17:38:14;2.50;;;1.90;;
53714;SDS011;39608;55.630;37.864;2023-02-28T17:43:19;2.45;;;1.80;;
53714;SDS011;39608;55.630;37.864;2023-02-28T17:48:21;3.45;;;2.08;;
53714;SDS011;39608;55.630;37.864;2023-02-28T17:53:23;2.38;;;1.50;;
53714;SDS011;39608;55.630;37.864;2023-02-28T17:58:26;2.47;;;1.00;;
53714;SDS011;39608;55.630;37.864;2023-02-28T18:03:28;0.90;;;0.68;;
53714;SDS011;39608;55.630;37.864;2023-02-28T18:08:31;2.63;;;0.60;;
53714;SDS011;39608;55.630;37.864;2023-02-28T18:13:36;1.38;;;0.70;;
53714;SDS011;39608;55.630;37.864;2023-02-28T18:18:39;1.33;;;0.65;;
53714;SDS011;39608;55.630;37.864;2023-02-28T18:23:42;2.17;;;0.95;;
53714;SDS011;39608;55.630;37.864;2023-02-28T18:28:49;2.60;;;0.90;;
53714;SDS011;39608;55.630;37.864;2023-02-28T18:33:51;1.38;;;0.63;;
53714;SDS011;39608;55.630;37.864;2023-02-28T18:38:53;0.85;;;0.70;;
53714;SDS011;39608;55.630;37.864;2023-02-28T18:43:57;3.85;;;0.95;;
53714;SDS011;39608;55.630;37.864;2023-02-28T18:49:03;0.88;;;0.75;;
53714;SDS011;39608;55.630;37.864;2023-02-28T18:54:05;3.67;;;1.20;;
53714;SDS011;39608;55.630;37.864;2023-02-28T18:59:09;1.63;;;1.10;;
53714;SDS011;39608;55.630;37.864;2023-02-28T19:04:11;3.13;;;1.10;;
53714;SDS011;39608;55.630;37.864;2023-02-28T19:09:14;3.10;;;1.27;;
53714;SDS011;39608;55.630;37.864;2023-02-28T19:14:17;2.15;;;1.00;;
53714;SDS011;39608;55.630;37.864;2023-02-28T19:19:21;2.17;;;0.75;;
53714;SDS011;39608;55.630;37.864;2023-02-28T19:24:23;6.28;;;1.00;;
53714;SDS011;39608;55.630;37.864;2023-02-28T19:29:26;3.60;;;0.80;;
53714;SDS011;39608;55.630;37.864;2023-02-28T19:34:28;2.03;;;1.08;;
53714;SDS011;39608;55.630;37.864;2023-02-28T19:39:31;2.08;;;0.77;;
53714;SDS011;39608;55.630;37.864;2023-02-28T19:44:41;2.05;;;0.95;;
53714;SDS011;39608;55.630;37.864;2023-02-28T19:49:44;2.17;;;0.95;;
53714;SDS011;39608;55.630;37.864;2023-02-28T19:54:46;0.95;;;0.63;;
53714;SDS011;39608;55.630;37.864;2023-02-28T19:59:49;1.02;;;0.77;;
53714;SDS011;39608;55.630;37.864;2023-02-28T20:04:51;2.78;;;1.60;;
53714;SDS011;39608;55.630;37.864;2023-02-28T20:09:54;10.88;;;1.45;;
53714;SDS011;39608;55.630;37.864;2023-02-28T20:14:57;1.48;;;0.80;;
53714;SDS011;39608;55.630;37.864;2023-02-28T20:19:59;0.50;;;0.50;;
53714;SDS011;39608;55.630;37.864;2023-02-28T20:25:03;3.42;;;1.15;;
53714;SDS011;39608;55.630;37.864;2023-02-28T20:30:10;1.75;;;1.38;;
53714;SDS011;39608;55.630;37.864;2023-02-28T20:35:13;4.55;;;1.30;;
53714;SDS011;39608;55.630;37.864;2023-02-28T20:40:15;6.43;;;1.00;;
53714;SDS011;39608;55.630;37.864;2023-02-28T20:45:19;2.78;;;0.90;;
53714;SDS011;39608;55.630;37.864;2023-02-28T20:50:21;2.80;;;0.95;;
53714;SDS011;39608;55.630;37.864;2023-02-28T20:55:23;2.80;;;1.27;;
53714;SDS011;39608;55.630;37.864;2023-02-28T21:00:26;1.45;;;0.70;;
53714;SDS011;39608;55.630;37.864;2023-02-28T21:05:28;0.88;;;0.63;;
53714;SDS011;39608;55.630;37.864;2023-02-28T21:10:31;1.80;;;0.82;;
53714;SDS011;39608;55.630;37.864;2023-02-28T21:15:36;1.55;;;0.70;;
53714;SDS011;39608;55.630;37.864;2023-02-28T21:20:39;0.73;;;0.60;;
53714;SDS011;39608;55.630;37.864;2023-02-28T21:25:41;2.92;;;1.05;;
53714;SDS011;39608;55.630;37.864;2023-02-28T21:30:44;3.55;;;0.80;;
53714;SDS011;39608;55.630;37.864;2023-02-28T21:35:46;2.70;;;0.80;;
53714;SDS011;39608;55.630;37.864;2023-02-28T21:40:48;0.57;;;0.52;;
53714;SDS011;39608;55.630;37.864;2023-02-28T21:45:52;1.30;;;0.75;;
53714;SDS011;39608;55.630;37.864;2023-02-28T21:50:55;1.70;;;0.90;;
53714;SDS011;39608;55.630;37.864;2023-02-28T21:55:58;2.15;;;0.73;;
53714;SDS011;39608;55.630;37.864;2023-02-28T22:01:06;1.38;;;0.40;;
53714;SDS011;39608;55.630;37.864;2023-02-28T22:06:10;1.00;;;0.60;;
53714;SDS011;39608;55.630;37.864;2023-02-28T22:11:14;0.95;;;0.70;;
53714;SDS011;39608;55.630;37.864;2023-02-28T22:16:18;1.90;;;0.57;;
53714;SDS011;39608;55.630;37.864;2023-02-28T22:21:22;1.25;;;0.60;;
53714;SDS011;39608;55.630;37.864;2023-02-28T22:26:24;0.98;;;0.40;;
53714;SDS011;39608;55.630;37.864;2023-02-28T22:31:28;1.30;;;0.40;;
53714;SDS011;39608;55.630;37.864;2023-02-28T22:36:31;1.42;;;0.73;;
53714;SDS011;39608;55.630;37.864;2023-02-28T22:41:33;1.65;;;0.73;;
53714;SDS011;39608;55.630;37.864;2023-02-28T22:46:37;3.50;;;0.77;;
53714;SDS011;39608;55.630;37.864;2023-02-28T22:51:39;1.05;;;0.60;;
53714;SDS011;39608;55.630;37.864;2023-02-28T22:56:41;1.25;;;0.80;;
53714;SDS011;39608;55.630;37.864;2023-02-28T23:01:45;2.33;;;0.63;;
53714;SDS011;39608;55.630;37.864;2023-02-28T23:06:46;1.40;;;0.70;;
53714;SDS011;39608;55.630;37.864;2023-02-28T23:11:49;1.42;;;0.63;;
53714;SDS011;39608;55.630;37.864;2023-02-28T23:16:52;2.03;;;0.77;;
53714;SDS011;39608;55.630;37.864;2023-02-28T23:21:55;2.35;;;0.85;;
53714;SDS011;39608;55.630;37.864;2023-02-28T23:26:59;0.40;;;0.40;;
53714;SDS011;39608;55.630;37.864;2023-02-28T23:32:04;1.55;;;0.68;;
53714;SDS011;39608;55.630;37.864;2023-02-28T23:37:07;0.75;;;0.57;;
53714;SDS011;39608;55.630;37.864;2023-02-28T23:42:09;3.92;;;0.57;;
53714;SDS011;39608;55.630;37.864;2023-02-28T23:47:12;1.05;;;0.55;;
53714;SDS011;39608;55.630;37.864;2023-02-28T23:52:14;0.40;;;0.40;;
53714;SDS011;39608;55.630;37.864;2023-02-28T23:57:17;2.33;;;0.68;;
